sensor_id;sensor_type;location;lat;lon;timestamp;P1;durP1;ratioP1;P2;durP2;ratioP2
11620;SDS011;5866;49.094;11.900;2022-12-07T00:00:56;11.93;;;10.83;;
11620;SDS011;5866;49.094;11.900;2022-12-07T00:03:32;12.07;;;10.77;;
11620;SDS011;5866;49.094;11.900;2022-12-07T00:06:00;11.70;;;10.50;;
11620;SDS011;5866;49.094;11.900;2022-12-07T00:08:28;12.67;;;11.37;;
11620;SDS011;5866;49.094;11.900;2022-12-07T00:11:00;12.37;;;11.10;;
11620;SDS011;5866;49.094;11.900;2022-12-07T00:13:29;12.73;;;10.30;;
11620;SDS011;5866;49.094;11.900;2022-12-07T00:16:00;10.23;;;8.73;;
11620;SDS011;5866;49.094;11.900;2022-12-07T00:18:29;11.47;;;9.40;;
11620;SDS011;5866;49.094;11.900;2022-12-07T00:20:59;10.30;;;9.20;;
11620;SDS011;5866;49.094;11.900;2022-12-07T00:23:27;11.13;;;10.00;;
11620;SDS011;5866;49.094;11.900;2022-12-07T00:25:55;10.50;;;9.17;;
11620;SDS011;5866;49.094;11.900;2022-12-07T00:28:22;11.43;;;9.43;;
11620;SDS011;5866;49.094;11.900;2022-12-07T00:30:50;11.13;;;9.60;;
11620;SDS011;5866;49.094;11.900;2022-12-07T00:33:19;11.40;;;9.70;;
11620;SDS011;5866;49.094;11.900;2022-12-07T00:35:46;12.03;;;9.67;;
11620;SDS011;5866;49.094;11.900;2022-12-07T00:38:14;11.90;;;9.83;;
11620;SDS011;5866;49.094;11.900;2022-12-07T00:40:41;11.77;;;9.83;;
11620;SDS011;5866;49.094;11.900;2022-12-07T00:43:09;11.37;;;9.53;;
11620;SDS011;5866;49.094;11.900;2022-12-07T00:45:36;9.80;;;8.80;;
11620;SDS011;5866;49.094;11.900;2022-12-07T00:48:04;11.37;;;8.93;;
11620;SDS011;5866;49.094;11.900;2022-12-07T00:50:33;10.53;;;9.00;;
11620;SDS011;5866;49.094;11.900;2022-12-07T00:53:00;11.57;;;9.17;;
11620;SDS011;5866;49.094;11.900;2022-12-07T00:55:28;10.17;;;9.17;;
11620;SDS011;5866;49.094;11.900;2022-12-07T00:57:59;11.97;;;9.90;;
11620;SDS011;5866;49.094;11.900;2022-12-07T01:00:27;12.30;;;10.17;;
11620;SDS011;5866;49.094;11.900;2022-12-07T01:02:55;12.10;;;10.73;;
11620;SDS011;5866;49.094;11.900;2022-12-07T01:05:22;12.53;;;11.23;;
11620;SDS011;5866;49.094;11.900;2022-12-07T01:07:51;11.33;;;10.10;;
11620;SDS011;5866;49.094;11.900;2022-12-07T01:10:19;14.47;;;11.57;;
11620;SDS011;5866;49.094;11.900;2022-12-07T01:12:46;12.73;;;11.43;;
11620;SDS011;5866;49.094;11.900;2022-12-07T01:15:14;12.07;;;10.77;;
11620;SDS011;5866;49.094;11.900;2022-12-07T01:17:41;13.17;;;10.50;;
11620;SDS011;5866;49.094;11.900;2022-12-07T01:20:09;13.00;;;10.27;;
11620;SDS011;5866;49.094;11.900;2022-12-07T01:22:38;12.43;;;10.17;;
11620;SDS011;5866;49.094;11.900;2022-12-07T01:25:08;12.60;;;11.30;;
11620;SDS011;5866;49.094;11.900;2022-12-07T01:27:37;12.03;;;10.07;;
11620;SDS011;5866;49.094;11.900;2022-12-07T01:30:05;11.47;;;9.73;;
11620;SDS011;5866;49.094;11.900;2022-12-07T01:32:34;12.27;;;10.97;;
11620;SDS011;5866;49.094;11.900;2022-12-07T01:35:01;10.97;;;9.40;;
11620;SDS011;5866;49.094;11.900;2022-12-07T01:37:33;13.03;;;11.27;;
11620;SDS011;5866;49.094;11.900;2022-12-07T01:40:01;10.77;;;9.57;;
11620;SDS011;5866;49.094;11.900;2022-12-07T01:42:31;10.87;;;9.77;;
11620;SDS011;5866;49.094;11.900;2022-12-07T01:48:12;10.20;;;9.13;;
11620;SDS011;5866;49.094;11.900;2022-12-07T01:50:44;11.73;;;10.47;;
11620;SDS011;5866;49.094;11.900;2022-12-07T01:53:15;13.00;;;11.03;;
11620;SDS011;5866;49.094;11.900;2022-12-07T01:55:45;10.40;;;9.27;;
11620;SDS011;5866;49.094;11.900;2022-12-07T01:58:18;11.80;;;10.57;;
11620;SDS011;5866;49.094;11.900;2022-12-07T02:00:47;11.50;;;10.30;;
11620;SDS011;5866;49.094;11.900;2022-12-07T02:03:15;10.47;;;9.37;;
11620;SDS011;5866;49.094;11.900;2022-12-07T02:05:46;12.97;;;10.53;;
11620;SDS011;5866;49.094;11.900;2022-12-07T02:08:16;11.57;;;10.23;;
11620;SDS011;5866;49.094;11.900;2022-12-07T02:10:44;13.03;;;11.30;;
11620;SDS011;5866;49.094;11.900;2022-12-07T02:13:12;12.83;;;10.53;;
11620;SDS011;5866;49.094;11.900;2022-12-07T02:15:48;11.13;;;9.70;;
11620;SDS011;5866;49.094;11.900;2022-12-07T02:18:25;11.73;;;10.27;;
11620;SDS011;5866;49.094;11.900;2022-12-07T02:21:06;12.20;;;9.90;;
11620;SDS011;5866;49.094;11.900;2022-12-07T02:23:40;13.53;;;11.23;;
11620;SDS011;5866;49.094;11.900;2022-12-07T02:26:23;12.00;;;10.73;;
11620;SDS011;5866;49.094;11.900;2022-12-07T02:29:13;13.83;;;12.33;;
11620;SDS011;5866;49.094;11.900;2022-12-07T02:31:46;12.73;;;11.43;;
11620;SDS011;5866;49.094;11.900;2022-12-07T02:34:26;13.23;;;11.83;;
11620;SDS011;5866;49.094;11.900;2022-12-07T02:37:03;13.90;;;12.13;;
11620;SDS011;5866;49.094;11.900;2022-12-07T02:39:39;13.10;;;11.70;;
11620;SDS011;5866;49.094;11.900;2022-12-07T02:42:13;12.73;;;10.97;;
11620;SDS011;5866;49.094;11.900;2022-12-07T02:44:44;13.27;;;11.03;;
11620;SDS011;5866;49.094;11.900;2022-12-07T02:47:14;13.70;;;11.37;;
11620;SDS011;5866;49.094;11.900;2022-12-07T02:49:45;17.73;;;11.63;;
11620;SDS011;5866;49.094;11.900;2022-12-07T02:52:13;14.40;;;12.00;;
11620;SDS011;5866;49.094;11.900;2022-12-07T02:54:40;13.43;;;11.43;;
11620;SDS011;5866;49.094;11.900;2022-12-07T02:57:13;14.27;;;11.87;;
11620;SDS011;5866;49.094;11.900;2022-12-07T02:59:57;14.83;;;12.23;;
11620;SDS011;5866;49.094;11.900;2022-12-07T03:02:31;14.50;;;12.73;;
11620;SDS011;5866;49.094;11.900;2022-12-07T03:05:15;13.57;;;11.90;;
11620;SDS011;5866;49.094;11.900;2022-12-07T03:08:00;13.17;;;10.77;;
11620;SDS011;5866;49.094;11.900;2022-12-07T03:10:35;13.47;;;10.60;;
11620;SDS011;5866;49.094;11.900;2022-12-07T03:13:17;12.00;;;10.70;;
11620;SDS011;5866;49.094;11.900;2022-12-07T03:15:53;13.37;;;10.77;;
11620;SDS011;5866;49.094;11.900;2022-12-07T03:18:26;12.13;;;10.43;;
11620;SDS011;5866;49.094;11.900;2022-12-07T03:20:58;13.23;;;11.70;;
11620;SDS011;5866;49.094;11.900;2022-12-07T03:23:32;12.70;;;10.83;;
11620;SDS011;5866;49.094;11.900;2022-12-07T03:26:02;11.77;;;10.47;;
11620;SDS011;5866;49.094;11.900;2022-12-07T03:28:35;13.30;;;11.90;;
11620;SDS011;5866;49.094;11.900;2022-12-07T03:31:09;12.87;;;11.50;;
11620;SDS011;5866;49.094;11.900;2022-12-07T03:33:42;13.50;;;12.03;;
11620;SDS011;5866;49.094;11.900;2022-12-07T03:36:17;14.57;;;11.33;;
11620;SDS011;5866;49.094;11.900;2022-12-07T03:38:50;13.73;;;12.17;;
11620;SDS011;5866;49.094;11.900;2022-12-07T03:41:23;15.03;;;12.80;;
11620;SDS011;5866;49.094;11.900;2022-12-07T03:43:54;12.97;;;11.40;;
11620;SDS011;5866;49.094;11.900;2022-12-07T03:46:27;14.57;;;12.37;;
11620;SDS011;5866;49.094;11.900;2022-12-07T03:49:04;18.50;;;13.33;;
11620;SDS011;5866;49.094;11.900;2022-12-07T03:51:38;13.97;;;12.47;;
11620;SDS011;5866;49.094;11.900;2022-12-07T03:54:13;17.80;;;12.93;;
11620;SDS011;5866;49.094;11.900;2022-12-07T03:56:43;16.13;;;14.47;;
11620;SDS011;5866;49.094;11.900;2022-12-07T03:59:13;15.87;;;14.17;;
11620;SDS011;5866;49.094;11.900;2022-12-07T04:01:43;16.07;;;14.37;;
11620;SDS011;5866;49.094;11.900;2022-12-07T04:04:11;15.67;;;13.90;;
11620;SDS011;5866;49.094;11.900;2022-12-07T04:06:39;14.83;;;13.17;;
11620;SDS011;5866;49.094;11.900;2022-12-07T04:09:06;15.80;;;14.10;;
11620;SDS011;5866;49.094;11.900;2022-12-07T04:11:34;16.43;;;14.40;;
11620;SDS011;5866;49.094;11.900;2022-12-07T04:14:01;15.90;;;14.20;;
11620;SDS011;5866;49.094;11.900;2022-12-07T04:16:49;17.00;;;15.20;;
11620;SDS011;5866;49.094;11.900;2022-12-07T04:19:18;16.03;;;14.33;;
11620;SDS011;5866;49.094;11.900;2022-12-07T04:21:48;15.37;;;13.77;;
11620;SDS011;5866;49.094;11.900;2022-12-07T04:24:16;14.87;;;13.23;;
11620;SDS011;5866;49.094;11.900;2022-12-07T04:26:44;17.83;;;14.83;;
11620;SDS011;5866;49.094;11.900;2022-12-07T04:29:13;16.07;;;13.90;;
11620;SDS011;5866;49.094;11.900;2022-12-07T04:31:41;16.60;;;13.83;;
11620;SDS011;5866;49.094;11.900;2022-12-07T04:34:11;16.53;;;14.73;;
11620;SDS011;5866;49.094;11.900;2022-12-07T04:36:39;18.10;;;16.20;;
11620;SDS011;5866;49.094;11.900;2022-12-07T04:39:08;17.30;;;15.50;;
11620;SDS011;5866;49.094;11.900;2022-12-07T04:41:40;17.67;;;15.77;;
11620;SDS011;5866;49.094;11.900;2022-12-07T04:44:08;19.30;;;15.87;;
11620;SDS011;5866;49.094;11.900;2022-12-07T04:46:36;19.13;;;17.13;;
11620;SDS011;5866;49.094;11.900;2022-12-07T04:49:03;19.33;;;16.90;;
11620;SDS011;5866;49.094;11.900;2022-12-07T04:51:32;18.80;;;16.70;;
11620;SDS011;5866;49.094;11.900;2022-12-07T04:54:00;19.40;;;17.30;;
11620;SDS011;5866;49.094;11.900;2022-12-07T04:56:27;18.53;;;16.53;;
11620;SDS011;5866;49.094;11.900;2022-12-07T04:58:55;19.17;;;17.17;;
11620;SDS011;5866;49.094;11.900;2022-12-07T05:01:22;19.37;;;17.00;;
11620;SDS011;5866;49.094;11.900;2022-12-07T05:03:51;19.07;;;16.53;;
11620;SDS011;5866;49.094;11.900;2022-12-07T05:06:18;23.13;;;17.67;;
11620;SDS011;5866;49.094;11.900;2022-12-07T05:08:48;19.50;;;16.47;;
11620;SDS011;5866;49.094;11.900;2022-12-07T05:11:15;19.97;;;15.93;;
11620;SDS011;5866;49.094;11.900;2022-12-07T05:13:57;22.07;;;18.13;;
11620;SDS011;5866;49.094;11.900;2022-12-07T05:16:25;22.13;;;17.23;;
11620;SDS011;5866;49.094;11.900;2022-12-07T05:18:53;20.13;;;16.90;;
11620;SDS011;5866;49.094;11.900;2022-12-07T05:21:20;21.03;;;16.77;;
11620;SDS011;5866;49.094;11.900;2022-12-07T05:23:49;23.70;;;15.90;;
11620;SDS011;5866;49.094;11.900;2022-12-07T05:26:17;23.03;;;16.77;;
11620;SDS011;5866;49.094;11.900;2022-12-07T05:28:44;20.03;;;16.10;;
11620;SDS011;5866;49.094;11.900;2022-12-07T05:31:12;21.33;;;16.37;;
11620;SDS011;5866;49.094;11.900;2022-12-07T05:33:40;19.67;;;15.63;;
11620;SDS011;5866;49.094;11.900;2022-12-07T05:36:07;20.67;;;15.13;;
11620;SDS011;5866;49.094;11.900;2022-12-07T05:38:35;20.27;;;16.13;;
11620;SDS011;5866;49.094;11.900;2022-12-07T05:41:05;21.73;;;17.83;;
11620;SDS011;5866;49.094;11.900;2022-12-07T05:43:33;22.33;;;17.40;;
11620;SDS011;5866;49.094;11.900;2022-12-07T05:46:00;21.30;;;16.27;;
11620;SDS011;5866;49.094;11.900;2022-12-07T05:48:27;24.67;;;18.80;;
11620;SDS011;5866;49.094;11.900;2022-12-07T05:50:55;23.13;;;17.50;;
11620;SDS011;5866;49.094;11.900;2022-12-07T05:53:22;26.40;;;20.13;;
11620;SDS011;5866;49.094;11.900;2022-12-07T05:55:51;27.10;;;19.63;;
11620;SDS011;5866;49.094;11.900;2022-12-07T05:58:20;27.70;;;20.87;;
11620;SDS011;5866;49.094;11.900;2022-12-07T06:01:05;28.03;;;21.13;;
11620;SDS011;5866;49.094;11.900;2022-12-07T06:03:33;26.67;;;21.30;;
11620;SDS011;5866;49.094;11.900;2022-12-07T06:06:00;29.97;;;25.07;;
11620;SDS011;5866;49.094;11.900;2022-12-07T06:08:28;28.57;;;24.77;;
11620;SDS011;5866;49.094;11.900;2022-12-07T06:10:55;30.63;;;26.13;;
11620;SDS011;5866;49.094;11.900;2022-12-07T06:13:38;30.53;;;27.00;;
11620;SDS011;5866;49.094;11.900;2022-12-07T06:16:12;33.47;;;28.27;;
11620;SDS011;5866;49.094;11.900;2022-12-07T06:18:40;33.90;;;27.50;;
11620;SDS011;5866;49.094;11.900;2022-12-07T06:21:07;33.80;;;28.97;;
11620;SDS011;5866;49.094;11.900;2022-12-07T06:23:35;30.83;;;27.63;;
11620;SDS011;5866;49.094;11.900;2022-12-07T06:26:02;33.33;;;29.57;;
11620;SDS011;5866;49.094;11.900;2022-12-07T06:28:30;35.97;;;30.53;;
11620;SDS011;5866;49.094;11.900;2022-12-07T06:30:59;32.57;;;29.03;;
11620;SDS011;5866;49.094;11.900;2022-12-07T06:33:27;34.43;;;30.60;;
11620;SDS011;5866;49.094;11.900;2022-12-07T06:35:55;36.70;;;32.90;;
11620;SDS011;5866;49.094;11.900;2022-12-07T06:38:23;34.57;;;30.20;;
11620;SDS011;5866;49.094;11.900;2022-12-07T06:40:50;34.50;;;31.17;;
11620;SDS011;5866;49.094;11.900;2022-12-07T06:43:18;35.87;;;31.20;;
11620;SDS011;5866;49.094;11.900;2022-12-07T06:45:46;36.57;;;32.67;;
11620;SDS011;5866;49.094;11.900;2022-12-07T06:48:14;36.60;;;32.60;;
11620;SDS011;5866;49.094;11.900;2022-12-07T06:50:43;36.33;;;32.10;;
11620;SDS011;5866;49.094;11.900;2022-12-07T06:53:19;35.97;;;31.43;;
11620;SDS011;5866;49.094;11.900;2022-12-07T06:55:47;38.87;;;34.83;;
11620;SDS011;5866;49.094;11.900;2022-12-07T06:58:14;36.33;;;30.57;;
11620;SDS011;5866;49.094;11.900;2022-12-07T07:00:42;33.17;;;28.63;;
11620;SDS011;5866;49.094;11.900;2022-12-07T07:03:10;36.40;;;30.33;;
11620;SDS011;5866;49.094;11.900;2022-12-07T07:05:39;35.43;;;30.13;;
11620;SDS011;5866;49.094;11.900;2022-12-07T07:08:07;34.57;;;29.77;;
11620;SDS011;5866;49.094;11.900;2022-12-07T07:10:50;38.87;;;34.63;;
11620;SDS011;5866;49.094;11.900;2022-12-07T07:13:17;38.30;;;33.43;;
11620;SDS011;5866;49.094;11.900;2022-12-07T07:15:45;43.63;;;39.33;;
11620;SDS011;5866;49.094;11.900;2022-12-07T07:18:12;34.20;;;26.47;;
11620;SDS011;5866;49.094;11.900;2022-12-07T07:20:41;32.63;;;29.07;;
11620;SDS011;5866;49.094;11.900;2022-12-07T07:23:09;34.10;;;30.13;;
11620;SDS011;5866;49.094;11.900;2022-12-07T07:25:36;29.30;;;20.00;;
11620;SDS011;5866;49.094;11.900;2022-12-07T07:28:04;23.63;;;18.40;;
11620;SDS011;5866;49.094;11.900;2022-12-07T07:30:32;26.30;;;19.73;;
11620;SDS011;5866;49.094;11.900;2022-12-07T07:33:00;28.50;;;19.97;;
11620;SDS011;5866;49.094;11.900;2022-12-07T07:35:29;24.10;;;19.20;;
11620;SDS011;5866;49.094;11.900;2022-12-07T07:37:59;22.00;;;15.47;;
11620;SDS011;5866;49.094;11.900;2022-12-07T07:40:27;25.63;;;17.83;;
11620;SDS011;5866;49.094;11.900;2022-12-07T07:42:55;23.83;;;15.53;;
11620;SDS011;5866;49.094;11.900;2022-12-07T07:45:24;20.37;;;14.30;;
11620;SDS011;5866;49.094;11.900;2022-12-07T07:47:53;19.47;;;14.87;;
11620;SDS011;5866;49.094;11.900;2022-12-07T07:50:21;19.23;;;14.37;;
11620;SDS011;5866;49.094;11.900;2022-12-07T07:52:49;17.47;;;12.93;;
11620;SDS011;5866;49.094;11.900;2022-12-07T07:55:18;17.70;;;14.33;;
11620;SDS011;5866;49.094;11.900;2022-12-07T07:57:46;18.20;;;13.20;;
11620;SDS011;5866;49.094;11.900;2022-12-07T08:00:20;16.27;;;12.17;;
11620;SDS011;5866;49.094;11.900;2022-12-07T08:02:48;18.07;;;12.23;;
11620;SDS011;5866;49.094;11.900;2022-12-07T08:05:16;18.00;;;14.40;;
11620;SDS011;5866;49.094;11.900;2022-12-07T08:07:44;17.63;;;13.50;;
11620;SDS011;5866;49.094;11.900;2022-12-07T08:10:12;15.17;;;12.50;;
11620;SDS011;5866;49.094;11.900;2022-12-07T08:12:42;17.37;;;13.87;;
11620;SDS011;5866;49.094;11.900;2022-12-07T08:15:28;16.57;;;12.73;;
11620;SDS011;5866;49.094;11.900;2022-12-07T08:17:57;16.37;;;12.77;;
11620;SDS011;5866;49.094;11.900;2022-12-07T08:20:25;18.90;;;11.67;;
11620;SDS011;5866;49.094;11.900;2022-12-07T08:22:53;14.83;;;10.60;;
11620;SDS011;5866;49.094;11.900;2022-12-07T08:25:21;16.30;;;12.23;;
11620;SDS011;5866;49.094;11.900;2022-12-07T08:27:50;15.33;;;11.80;;
11620;SDS011;5866;49.094;11.900;2022-12-07T08:30:18;15.00;;;11.07;;
11620;SDS011;5866;49.094;11.900;2022-12-07T08:32:47;14.13;;;10.70;;
11620;SDS011;5866;49.094;11.900;2022-12-07T08:35:15;15.83;;;10.87;;
11620;SDS011;5866;49.094;11.900;2022-12-07T08:37:43;15.67;;;10.80;;
11620;SDS011;5866;49.094;11.900;2022-12-07T08:40:11;12.80;;;10.47;;
11620;SDS011;5866;49.094;11.900;2022-12-07T08:42:41;14.80;;;10.13;;
11620;SDS011;5866;49.094;11.900;2022-12-07T08:45:12;12.60;;;9.17;;
11620;SDS011;5866;49.094;11.900;2022-12-07T08:47:42;12.27;;;10.03;;
11620;SDS011;5866;49.094;11.900;2022-12-07T08:50:12;12.93;;;10.07;;
11620;SDS011;5866;49.094;11.900;2022-12-07T08:52:41;11.10;;;9.73;;
11620;SDS011;5866;49.094;11.900;2022-12-07T08:55:09;11.90;;;9.77;;
11620;SDS011;5866;49.094;11.900;2022-12-07T08:57:38;14.83;;;10.80;;
11620;SDS011;5866;49.094;11.900;2022-12-07T09:00:06;10.60;;;9.23;;
11620;SDS011;5866;49.094;11.900;2022-12-07T09:02:36;13.23;;;10.07;;
11620;SDS011;5866;49.094;11.900;2022-12-07T09:05:04;10.80;;;9.07;;
11620;SDS011;5866;49.094;11.900;2022-12-07T09:07:40;13.73;;;10.17;;
11620;SDS011;5866;49.094;11.900;2022-12-07T09:10:09;11.77;;;10.07;;
11620;SDS011;5866;49.094;11.900;2022-12-07T09:12:37;14.37;;;10.83;;
11620;SDS011;5866;49.094;11.900;2022-12-07T09:15:06;13.03;;;10.67;;
11620;SDS011;5866;49.094;11.900;2022-12-07T09:17:34;12.83;;;9.63;;
11620;SDS011;5866;49.094;11.900;2022-12-07T09:20:05;14.43;;;11.37;;
11620;SDS011;5866;49.094;11.900;2022-12-07T09:22:34;12.10;;;9.33;;
11620;SDS011;5866;49.094;11.900;2022-12-07T09:25:01;15.10;;;10.70;;
11620;SDS011;5866;49.094;11.900;2022-12-07T09:27:30;14.10;;;10.40;;
11620;SDS011;5866;49.094;11.900;2022-12-07T09:29:58;13.07;;;10.13;;
11620;SDS011;5866;49.094;11.900;2022-12-07T09:32:26;14.17;;;11.53;;
11620;SDS011;5866;49.094;11.900;2022-12-07T09:34:53;15.60;;;10.93;;
11620;SDS011;5866;49.094;11.900;2022-12-07T09:37:22;15.13;;;10.40;;
11620;SDS011;5866;49.094;11.900;2022-12-07T09:39:50;13.50;;;10.57;;
11620;SDS011;5866;49.094;11.900;2022-12-07T09:42:23;13.10;;;9.07;;
11620;SDS011;5866;49.094;11.900;2022-12-07T09:44:55;12.63;;;9.93;;
11620;SDS011;5866;49.094;11.900;2022-12-07T09:47:24;13.10;;;10.20;;
11620;SDS011;5866;49.094;11.900;2022-12-07T09:49:53;13.77;;;10.33;;
11620;SDS011;5866;49.094;11.900;2022-12-07T09:52:29;11.53;;;8.00;;
11620;SDS011;5866;49.094;11.900;2022-12-07T09:55:08;14.77;;;10.23;;
11620;SDS011;5866;49.094;11.900;2022-12-07T09:57:38;11.40;;;8.60;;
11620;SDS011;5866;49.094;11.900;2022-12-07T10:00:10;9.73;;;7.93;;
11620;SDS011;5866;49.094;11.900;2022-12-07T10:02:42;13.47;;;10.53;;
11620;SDS011;5866;49.094;11.900;2022-12-07T10:05:12;11.87;;;9.77;;
11620;SDS011;5866;49.094;11.900;2022-12-07T10:07:50;12.80;;;10.77;;
11620;SDS011;5866;49.094;11.900;2022-12-07T10:10:19;12.77;;;10.00;;
11620;SDS011;5866;49.094;11.900;2022-12-07T10:12:52;12.60;;;10.37;;
11620;SDS011;5866;49.094;11.900;2022-12-07T10:15:39;11.43;;;9.20;;
11620;SDS011;5866;49.094;11.900;2022-12-07T10:18:16;14.07;;;9.87;;
11620;SDS011;5866;49.094;11.900;2022-12-07T10:20:47;8.80;;;7.23;;
11620;SDS011;5866;49.094;11.900;2022-12-07T10:23:17;10.40;;;8.20;;
11620;SDS011;5866;49.094;11.900;2022-12-07T10:25:45;11.20;;;8.53;;
11620;SDS011;5866;49.094;11.900;2022-12-07T10:28:15;10.97;;;9.33;;
11620;SDS011;5866;49.094;11.900;2022-12-07T10:30:51;12.30;;;9.40;;
11620;SDS011;5866;49.094;11.900;2022-12-07T10:33:36;13.20;;;9.20;;
11620;SDS011;5866;49.094;11.900;2022-12-07T10:36:16;12.40;;;9.70;;
11620;SDS011;5866;49.094;11.900;2022-12-07T10:38:48;10.90;;;8.70;;
11620;SDS011;5866;49.094;11.900;2022-12-07T10:41:17;7.50;;;6.27;;
11620;SDS011;5866;49.094;11.900;2022-12-07T10:43:52;12.37;;;9.07;;
11620;SDS011;5866;49.094;11.900;2022-12-07T10:46:37;12.07;;;8.43;;
11620;SDS011;5866;49.094;11.900;2022-12-07T10:52:28;11.73;;;9.47;;
11620;SDS011;5866;49.094;11.900;2022-12-07T10:55:11;11.70;;;9.60;;
11620;SDS011;5866;49.094;11.900;2022-12-07T10:57:50;13.90;;;9.67;;
11620;SDS011;5866;49.094;11.900;2022-12-07T11:00:37;8.40;;;6.97;;
11620;SDS011;5866;49.094;11.900;2022-12-07T11:03:23;10.47;;;8.10;;
11620;SDS011;5866;49.094;11.900;2022-12-07T11:06:01;9.77;;;6.93;;
11620;SDS011;5866;49.094;11.900;2022-12-07T11:08:39;11.17;;;8.77;;
11620;SDS011;5866;49.094;11.900;2022-12-07T11:11:19;11.53;;;8.80;;
11620;SDS011;5866;49.094;11.900;2022-12-07T11:13:55;10.87;;;8.33;;
11620;SDS011;5866;49.094;11.900;2022-12-07T11:16:32;9.37;;;7.70;;
11620;SDS011;5866;49.094;11.900;2022-12-07T11:19:16;9.17;;;7.20;;
11620;SDS011;5866;49.094;11.900;2022-12-07T11:21:56;7.83;;;6.53;;
11620;SDS011;5866;49.094;11.900;2022-12-07T11:24:26;9.93;;;7.83;;
11620;SDS011;5866;49.094;11.900;2022-12-07T11:27:04;11.13;;;9.00;;
11620;SDS011;5866;49.094;11.900;2022-12-07T11:29:42;9.57;;;7.43;;
11620;SDS011;5866;49.094;11.900;2022-12-07T11:32:17;9.07;;;7.30;;
11620;SDS011;5866;49.094;11.900;2022-12-07T11:34:52;8.37;;;5.97;;
11620;SDS011;5866;49.094;11.900;2022-12-07T11:37:31;9.73;;;7.13;;
11620;SDS011;5866;49.094;11.900;2022-12-07T11:40:05;7.63;;;6.53;;
11620;SDS011;5866;49.094;11.900;2022-12-07T11:42:46;7.57;;;5.70;;
11620;SDS011;5866;49.094;11.900;2022-12-07T11:45:19;7.63;;;5.77;;
11620;SDS011;5866;49.094;11.900;2022-12-07T11:47:54;7.80;;;6.60;;
11620;SDS011;5866;49.094;11.900;2022-12-07T11:50:26;7.67;;;5.43;;
11620;SDS011;5866;49.094;11.900;2022-12-07T11:53:01;8.07;;;7.37;;
11620;SDS011;5866;49.094;11.900;2022-12-07T11:55:39;7.30;;;6.20;;
11620;SDS011;5866;49.094;11.900;2022-12-07T11:58:18;6.30;;;5.03;;
11620;SDS011;5866;49.094;11.900;2022-12-07T12:00:50;8.83;;;7.03;;
11620;SDS011;5866;49.094;11.900;2022-12-07T12:03:23;8.30;;;7.10;;
11620;SDS011;5866;49.094;11.900;2022-12-07T12:05:56;7.40;;;6.67;;
11620;SDS011;5866;49.094;11.900;2022-12-07T12:08:25;9.97;;;7.23;;
11620;SDS011;5866;49.094;11.900;2022-12-07T12:11:19;9.10;;;7.13;;
11620;SDS011;5866;49.094;11.900;2022-12-07T12:14:13;8.07;;;7.23;;
11620;SDS011;5866;49.094;11.900;2022-12-07T12:17:04;10.10;;;7.27;;
11620;SDS011;5866;49.094;11.900;2022-12-07T12:19:44;11.17;;;7.73;;
11620;SDS011;5866;49.094;11.900;2022-12-07T12:22:32;9.47;;;8.17;;
11620;SDS011;5866;49.094;11.900;2022-12-07T12:25:04;10.03;;;8.50;;
11620;SDS011;5866;49.094;11.900;2022-12-07T12:27:35;9.10;;;7.00;;
11620;SDS011;5866;49.094;11.900;2022-12-07T12:30:07;11.27;;;8.10;;
11620;SDS011;5866;49.094;11.900;2022-12-07T12:32:52;9.07;;;7.17;;
11620;SDS011;5866;49.094;11.900;2022-12-07T12:35:31;8.57;;;6.87;;
11620;SDS011;5866;49.094;11.900;2022-12-07T12:38:20;8.80;;;7.50;;
11620;SDS011;5866;49.094;11.900;2022-12-07T12:40:54;8.00;;;6.67;;
11620;SDS011;5866;49.094;11.900;2022-12-07T12:46:38;8.57;;;6.90;;
11620;SDS011;5866;49.094;11.900;2022-12-07T12:49:30;8.33;;;6.83;;
11620;SDS011;5866;49.094;11.900;2022-12-07T12:52:01;12.50;;;8.00;;
11620;SDS011;5866;49.094;11.900;2022-12-07T12:55:17;14.67;;;8.87;;
11620;SDS011;5866;49.094;11.900;2022-12-07T13:03:56;10.07;;;8.33;;
11620;SDS011;5866;49.094;11.900;2022-12-07T13:06:32;12.33;;;8.93;;
11620;SDS011;5866;49.094;11.900;2022-12-07T13:09:04;10.53;;;7.80;;
11620;SDS011;5866;49.094;11.900;2022-12-07T13:11:45;10.70;;;7.87;;
11620;SDS011;5866;49.094;11.900;2022-12-07T13:17:10;10.57;;;8.00;;
11620;SDS011;5866;49.094;11.900;2022-12-07T13:22:37;8.80;;;7.70;;
11620;SDS011;5866;49.094;11.900;2022-12-07T13:25:11;10.70;;;8.20;;
11620;SDS011;5866;49.094;11.900;2022-12-07T13:27:47;11.10;;;7.47;;
11620;SDS011;5866;49.094;11.900;2022-12-07T13:30:21;9.93;;;8.43;;
11620;SDS011;5866;49.094;11.900;2022-12-07T13:32:52;11.37;;;9.07;;
11620;SDS011;5866;49.094;11.900;2022-12-07T13:35:29;9.50;;;8.20;;
11620;SDS011;5866;49.094;11.900;2022-12-07T13:37:58;13.13;;;8.90;;
11620;SDS011;5866;49.094;11.900;2022-12-07T13:40:26;10.47;;;8.83;;
11620;SDS011;5866;49.094;11.900;2022-12-07T13:42:57;10.93;;;9.33;;
11620;SDS011;5866;49.094;11.900;2022-12-07T13:45:27;12.30;;;9.33;;
11620;SDS011;5866;49.094;11.900;2022-12-07T13:48:16;12.97;;;9.47;;
11620;SDS011;5866;49.094;11.900;2022-12-07T13:50:54;10.27;;;8.63;;
11620;SDS011;5866;49.094;11.900;2022-12-07T13:53:22;12.80;;;9.87;;
11620;SDS011;5866;49.094;11.900;2022-12-07T13:55:50;11.23;;;9.43;;
11620;SDS011;5866;49.094;11.900;2022-12-07T13:58:20;12.63;;;9.83;;
11620;SDS011;5866;49.094;11.900;2022-12-07T14:00:48;11.83;;;9.90;;
11620;SDS011;5866;49.094;11.900;2022-12-07T14:03:27;11.57;;;8.47;;
11620;SDS011;5866;49.094;11.900;2022-12-07T14:06:15;9.43;;;8.20;;
11620;SDS011;5866;49.094;11.900;2022-12-07T14:09:05;10.73;;;9.60;;
11620;SDS011;5866;49.094;11.900;2022-12-07T14:11:43;11.73;;;9.40;;
11620;SDS011;5866;49.094;11.900;2022-12-07T14:14:13;12.07;;;9.10;;
11620;SDS011;5866;49.094;11.900;2022-12-07T14:16:45;10.57;;;8.70;;
11620;SDS011;5866;49.094;11.900;2022-12-07T14:19:40;9.93;;;8.77;;
11620;SDS011;5866;49.094;11.900;2022-12-07T14:22:20;11.33;;;9.30;;
11620;SDS011;5866;49.094;11.900;2022-12-07T14:24:50;11.57;;;8.80;;
11620;SDS011;5866;49.094;11.900;2022-12-07T14:27:29;12.13;;;9.03;;
11620;SDS011;5866;49.094;11.900;2022-12-07T14:30:00;12.63;;;9.40;;
11620;SDS011;5866;49.094;11.900;2022-12-07T14:32:28;10.03;;;9.03;;
11620;SDS011;5866;49.094;11.900;2022-12-07T14:34:57;10.50;;;8.67;;
11620;SDS011;5866;49.094;11.900;2022-12-07T14:37:29;10.03;;;9.03;;
11620;SDS011;5866;49.094;11.900;2022-12-07T14:39:57;9.67;;;8.30;;
11620;SDS011;5866;49.094;11.900;2022-12-07T14:42:26;9.63;;;8.20;;
11620;SDS011;5866;49.094;11.900;2022-12-07T14:44:57;9.13;;;7.90;;
11620;SDS011;5866;49.094;11.900;2022-12-07T14:47:26;9.90;;;7.77;;
11620;SDS011;5866;49.094;11.900;2022-12-07T14:50:15;8.83;;;7.40;;
11620;SDS011;5866;49.094;11.900;2022-12-07T14:52:47;8.13;;;7.17;;
11620;SDS011;5866;49.094;11.900;2022-12-07T14:55:38;7.53;;;6.83;;
11620;SDS011;5866;49.094;11.900;2022-12-07T14:58:05;8.60;;;7.30;;
11620;SDS011;5866;49.094;11.900;2022-12-07T15:00:33;7.73;;;6.80;;
11620;SDS011;5866;49.094;11.900;2022-12-07T15:03:01;7.77;;;6.47;;
11620;SDS011;5866;49.094;11.900;2022-12-07T15:05:28;8.73;;;6.87;;
11620;SDS011;5866;49.094;11.900;2022-12-07T15:07:57;7.77;;;7.00;;
11620;SDS011;5866;49.094;11.900;2022-12-07T15:10:26;9.13;;;7.07;;
11620;SDS011;5866;49.094;11.900;2022-12-07T15:12:59;7.47;;;6.63;;
11620;SDS011;5866;49.094;11.900;2022-12-07T15:15:42;7.43;;;6.47;;
11620;SDS011;5866;49.094;11.900;2022-12-07T15:18:10;8.10;;;7.30;;